createdAt,value
2019-05-15T00:00:54.480Z,43.20
2019-05-15T00:03:28.682Z,43.10
2019-05-15T00:05:59.775Z,43.30
2019-05-15T00:08:30.604Z,43.50
2019-05-15T00:11:02.424Z,43.50
2019-05-15T00:13:34.034Z,43.00
2019-05-15T00:16:08.269Z,44.00
2019-05-15T00:18:39.769Z,43.40
2019-05-15T00:21:10.504Z,43.30
2019-05-15T00:23:42.262Z,43.10
2019-05-15T00:26:13.846Z,43.20
2019-05-15T00:28:47.866Z,43.50
2019-05-15T00:31:18.945Z,43.10
2019-05-15T00:33:50.726Z,43.30
2019-05-15T00:36:21.861Z,43.10
2019-05-15T00:39:08.455Z,43.30
2019-05-15T00:41:50.867Z,42.90
2019-05-15T00:44:12.795Z,43.20
2019-05-15T00:46:43.505Z,43.10
2019-05-15T00:49:15.270Z,43.50
2019-05-15T00:51:48.668Z,43.70
2019-05-15T00:54:20.371Z,43.40
2019-05-15T00:56:52.019Z,43.20
2019-05-15T00:59:26.920Z,43.80
2019-05-15T01:01:59.281Z,43.90
2019-05-15T01:04:30.496Z,43.70
2019-05-15T01:07:02.315Z,43.30
2019-05-15T01:09:33.849Z,43.60
2019-05-15T01:12:05.745Z,43.50
2019-05-15T01:14:38.440Z,43.60
2019-05-15T01:17:09.758Z,43.60
2019-05-15T01:19:40.448Z,43.30
2019-05-15T01:22:12.053Z,43.20
2019-05-15T01:24:43.774Z,43.30
2019-05-15T01:27:14.490Z,43.40
2019-05-15T01:29:46.302Z,44.10
2019-05-15T01:32:19.077Z,43.40
2019-05-15T01:34:51.042Z,43.10
2019-05-15T01:37:23.267Z,43.30
2019-05-15T01:39:58.000Z,42.80
2019-05-15T01:42:29.407Z,43.40
2019-05-15T01:45:01.064Z,42.80
2019-05-15T01:47:33.310Z,43.10
2019-05-15T01:50:04.898Z,43.00
2019-05-15T01:52:38.690Z,43.50
2019-05-15T01:55:10.653Z,43.70
2019-05-15T01:57:42.350Z,43.60
2019-05-15T02:00:14.617Z,43.00
2019-05-15T02:02:48.105Z,43.60
2019-05-15T02:05:19.753Z,42.90
2019-05-15T02:07:50.488Z,43.20
2019-05-15T02:10:22.303Z,43.30
2019-05-15T02:12:54.313Z,43.00
2019-05-15T02:15:25.837Z,43.50
2019-05-15T02:17:58.801Z,43.20
2019-05-15T02:20:30.749Z,43.20
2019-05-15T02:23:01.892Z,43.50
2019-05-15T02:25:33.366Z,43.60
2019-05-15T02:28:05.064Z,43.30
2019-05-15T02:30:40.404Z,43.40
2019-05-15T02:33:11.066Z,43.40
2019-05-15T02:35:42.757Z,43.20
2019-05-15T02:38:15.567Z,43.50
2019-05-15T02:40:49.448Z,43.30
2019-05-15T02:43:21.306Z,43.40
2019-05-15T02:45:52.871Z,43.60
2019-05-15T02:48:25.303Z,43.40
2019-05-15T02:50:58.922Z,43.60
2019-05-15T02:58:33.830Z,42.90
2019-05-15T03:01:05.751Z,44.00
2019-05-15T03:03:38.733Z,43.80
2019-05-15T03:06:10.227Z,43.90
2019-05-15T03:08:42.324Z,44.00
2019-05-15T03:11:14.086Z,44.00
2019-05-15T03:13:45.765Z,44.30
2019-05-15T03:16:19.434Z,44.00
2019-05-15T03:18:50.764Z,44.00
2019-05-15T03:21:23.736Z,44.00
2019-05-15T03:23:54.711Z,44.10
2019-05-15T03:26:25.458Z,43.80
2019-05-15T03:28:59.072Z,44.00
2019-05-15T03:31:48.867Z,44.00
2019-05-15T03:34:03.994Z,44.10
2019-05-15T03:36:36.053Z,44.20
2019-05-15T03:39:09.666Z,44.30
2019-05-15T03:41:41.759Z,44.20
2019-05-15T03:44:12.478Z,44.30
2019-05-15T03:46:44.322Z,44.40
2019-05-15T03:49:16.066Z,44.20
2019-05-15T03:51:49.999Z,44.00
2019-05-15T03:54:21.307Z,44.10
2019-05-15T03:56:52.748Z,43.80
2019-05-15T03:59:23.486Z,44.20
2019-05-15T04:01:59.700Z,44.40
2019-05-15T04:04:29.882Z,44.00
2019-05-15T04:07:01.863Z,44.90
2019-05-15T04:09:33.763Z,44.40
2019-05-15T04:12:04.478Z,44.10
2019-05-15T04:14:39.269Z,44.20
2019-05-15T04:17:09.819Z,44.30
2019-05-15T04:19:41.595Z,44.20
2019-05-15T04:22:13.427Z,44.60
2019-05-15T04:24:45.302Z,44.10
2019-05-15T04:27:19.574Z,44.40
2019-05-15T04:29:50.373Z,44.40
2019-05-15T04:32:22.297Z,43.90
2019-05-15T04:34:54.001Z,44.60
2019-05-15T04:37:25.830Z,44.30
2019-05-15T04:39:59.722Z,44.00
2019-05-15T04:42:31.295Z,44.10
2019-05-15T04:45:03.452Z,44.40
2019-05-15T04:47:35.064Z,44.30
2019-05-15T04:50:08.971Z,44.20
2019-05-15T04:52:43.351Z,44.10
2019-05-15T04:55:14.329Z,43.70
2019-05-15T04:57:46.371Z,44.20
2019-05-15T05:00:49.614Z,44.20
2019-05-15T05:03:21.782Z,43.80
2019-05-15T05:05:53.787Z,44.10
2019-05-15T05:08:25.417Z,44.00
2019-05-15T05:10:59.194Z,44.20
2019-05-15T05:13:30.619Z,44.20
2019-05-15T05:16:02.392Z,43.50
2019-05-15T05:18:34.295Z,43.50
2019-05-15T05:21:07.731Z,44.00
2019-05-15T05:23:39.782Z,44.20
2019-05-15T05:26:12.038Z,44.30
2019-05-15T05:28:43.763Z,44.30
2019-05-15T05:31:18.466Z,44.10
2019-05-15T05:33:49.393Z,43.20
2019-05-15T05:36:21.293Z,43.30
2019-05-15T05:38:53.299Z,43.60
2019-05-15T05:41:27.971Z,43.50
2019-05-15T05:43:59.338Z,43.70
2019-05-15T05:46:31.328Z,43.40
2019-05-15T05:49:03.764Z,43.70
2019-05-15T05:51:35.574Z,44.00
2019-05-15T05:54:08.449Z,44.00
2019-05-15T05:56:40.850Z,43.90
2019-05-15T05:59:12.561Z,43.40
2019-05-15T06:01:44.750Z,44.00
2019-05-15T06:04:18.403Z,43.30
2019-05-15T06:07:06.291Z,43.80
2019-05-15T06:09:23.465Z,44.00
2019-05-15T06:11:55.302Z,43.90
2019-05-15T06:14:28.850Z,43.80
2019-05-15T06:17:00.619Z,43.60
2019-05-15T06:19:32.394Z,43.60
2019-05-15T06:22:04.079Z,43.40
2019-05-15T06:24:37.811Z,43.80
2019-05-15T06:27:09.315Z,43.80
2019-05-15T06:29:41.390Z,43.90
2019-05-15T06:32:13.063Z,43.60
2019-05-15T06:34:44.793Z,43.80
2019-05-15T06:37:19.453Z,43.70
2019-05-15T06:39:49.748Z,43.70
2019-05-15T06:42:20.506Z,43.60
2019-05-15T06:44:52.307Z,43.60
2019-05-15T06:47:23.924Z,43.50
2019-05-15T06:49:57.863Z,43.20
2019-05-15T06:52:29.377Z,43.60
2019-05-15T06:55:01.269Z,42.90
2019-05-15T06:57:32.859Z,43.10
2019-05-15T07:00:04.748Z,42.80
2019-05-15T07:02:37.927Z,42.90
2019-05-15T07:05:08.993Z,43.10
2019-05-15T07:07:40.777Z,43.10
2019-05-15T07:10:11.466Z,42.90
2019-05-15T07:12:43.311Z,42.90
2019-05-15T07:15:15.358Z,42.30
2019-05-15T07:17:48.426Z,42.40
2019-05-15T07:25:23.297Z,42.00
2019-05-15T07:27:57.898Z,42.80
2019-05-15T07:30:29.306Z,41.90
2019-05-15T07:33:01.903Z,42.10
2019-05-15T07:35:33.745Z,42.30
2019-05-15T07:38:04.558Z,42.20
2019-05-15T07:40:38.578Z,41.90
2019-05-15T07:43:10.870Z,42.20
2019-05-15T07:45:44.397Z,42.10
2019-05-15T07:48:18.867Z,42.30
2019-05-15T07:50:50.154Z,42.00
2019-05-15T07:53:21.771Z,42.50
2019-05-15T07:55:53.357Z,42.00
2019-05-15T07:58:27.669Z,41.90
2019-05-15T08:00:59.128Z,41.50
2019-05-15T08:03:31.908Z,41.20
2019-05-15T08:06:03.824Z,41.60
2019-05-15T08:08:35.790Z,41.90
2019-05-15T08:11:17.632Z,41.80
2019-05-15T08:13:40.063Z,41.50
2019-05-15T08:16:11.773Z,41.30
2019-05-15T08:18:42.463Z,40.80
2019-05-15T08:21:14.298Z,41.20
2019-05-15T08:23:48.242Z,41.60
2019-05-15T08:26:18.525Z,41.00
2019-05-15T08:28:50.298Z,41.50
2019-05-15T08:31:21.833Z,41.30
2019-05-15T08:33:53.813Z,41.60
2019-05-15T08:36:27.649Z,41.40
2019-05-15T08:38:59.305Z,40.90
2019-05-15T08:41:30.811Z,41.30
2019-05-15T08:44:02.654Z,41.10
2019-05-15T08:46:34.861Z,40.50
2019-05-15T08:49:09.206Z,40.50
2019-05-15T08:51:41.807Z,41.20
2019-05-15T08:54:13.765Z,41.00
2019-05-15T08:56:48.194Z,40.30
2019-05-15T08:59:19.435Z,40.30
2019-05-15T09:01:51.294Z,39.60
2019-05-15T09:04:30.610Z,39.70
2019-05-15T09:07:00.945Z,39.20
2019-05-15T09:09:28.906Z,38.50
2019-05-15T09:12:00.803Z,38.20
2019-05-15T09:14:32.779Z,36.80
2019-05-15T09:17:03.714Z,37.60
2019-05-15T09:19:34.499Z,37.30
2019-05-15T09:22:08.915Z,36.70
2019-05-15T09:24:39.745Z,38.10
2019-05-15T09:27:10.523Z,38.20
2019-05-15T09:29:42.569Z,38.40
2019-05-15T09:32:14.460Z,38.70
2019-05-15T09:34:51.694Z,38.30
2019-05-15T09:37:21.316Z,39.10
2019-05-15T09:39:53.332Z,39.50
2019-05-15T09:42:25.301Z,39.60
2019-05-15T09:44:58.440Z,39.60
2019-05-15T09:47:30.814Z,39.10
2019-05-15T09:50:02.559Z,38.80
2019-05-15T09:52:34.836Z,39.50
2019-05-15T09:55:08.600Z,39.10
2019-05-15T09:57:40.304Z,38.90
2019-05-15T10:00:12.511Z,39.30
2019-05-15T10:02:44.755Z,38.80
2019-05-15T10:05:18.502Z,38.30
2019-05-15T10:07:50.049Z,38.60
2019-05-15T10:10:22.305Z,39.30
2019-05-15T10:12:53.854Z,39.60
2019-05-15T10:15:25.768Z,39.30
2019-05-15T10:17:59.771Z,39.10
2019-05-15T10:20:31.806Z,39.60
2019-05-15T10:23:03.420Z,39.30
2019-05-15T10:25:35.368Z,39.30
2019-05-15T10:28:09.749Z,39.70
2019-05-15T10:30:40.622Z,39.70
2019-05-15T10:33:11.937Z,39.50
2019-05-15T10:35:43.777Z,39.40
2019-05-15T10:38:15.623Z,39.90
2019-05-15T10:41:02.769Z,39.40
2019-05-15T10:43:21.163Z,39.20
2019-05-15T10:45:54.828Z,39.40
2019-05-15T10:48:29.187Z,39.60
2019-05-15T10:51:05.920Z,39.20
2019-05-15T10:53:33.300Z,39.50
2019-05-15T10:56:04.868Z,39.40
2019-05-15T10:58:38.970Z,39.20
2019-05-15T11:01:11.361Z,39.10
2019-05-15T11:03:42.478Z,38.40
2019-05-15T11:06:14.263Z,38.80
2019-05-15T11:08:50.932Z,39.20
2019-05-15T11:11:19.851Z,39.40
2019-05-15T11:13:51.482Z,39.20
2019-05-15T11:16:23.304Z,39.30
2019-05-15T11:18:54.912Z,39.00
2019-05-15T11:21:26.703Z,39.30
2019-05-15T11:23:59.023Z,39.10
2019-05-15T11:26:33.566Z,39.10
2019-05-15T11:29:04.602Z,39.00
2019-05-15T11:31:39.137Z,39.40
2019-05-15T11:34:10.068Z,39.10
2019-05-15T11:36:41.821Z,38.70
2019-05-15T11:39:13.374Z,39.30
2019-05-15T11:41:45.067Z,39.20
2019-05-15T11:44:18.668Z,39.20
2019-05-15T11:46:50.401Z,39.50
2019-05-15T11:49:26.164Z,39.50
2019-05-15T11:52:00.507Z,39.50
2019-05-15T11:54:31.302Z,39.20
2019-05-15T11:57:03.363Z,39.10
2019-05-15T11:59:35.087Z,39.20
2019-05-15T12:02:08.547Z,38.90
2019-05-15T12:04:40.313Z,39.30
2019-05-15T12:07:12.292Z,39.30
2019-05-15T12:09:45.419Z,39.00
2019-05-15T12:12:18.049Z,39.00
2019-05-15T12:14:49.814Z,39.60
2019-05-15T12:17:21.799Z,39.40
2019-05-15T12:20:01.658Z,39.50
2019-05-15T12:22:28.722Z,39.30
2019-05-15T12:25:00.559Z,39.60
2019-05-15T12:27:31.744Z,39.60
2019-05-15T12:30:03.334Z,39.50
2019-05-15T12:35:08.832Z,39.80
2019-05-15T12:37:40.585Z,39.80
2019-05-15T13:00:41.982Z,38.70
2019-05-15T13:03:13.745Z,39.20
2019-05-15T13:05:44.489Z,39.50
2019-05-15T13:08:16.260Z,39.10
2019-05-15T13:10:48.776Z,39.20
2019-05-15T13:13:20.892Z,39.20
2019-05-15T13:15:52.736Z,39.20
2019-05-15T13:18:23.480Z,39.10
2019-05-15T13:20:56.816Z,39.10
2019-05-15T13:23:28.817Z,39.50
2019-05-15T13:26:00.781Z,39.10
2019-05-15T13:28:31.477Z,39.50
2019-05-15T13:31:03.341Z,38.50
2019-05-15T13:33:35.049Z,37.30
2019-05-15T13:36:08.701Z,38.10
2019-05-15T13:38:40.474Z,38.70
2019-05-15T13:41:12.303Z,39.20
2019-05-15T13:43:44.421Z,38.70
2019-05-15T13:46:20.249Z,38.10
2019-05-15T13:48:50.262Z,38.60
2019-05-15T13:51:22.032Z,39.20
2019-05-15T13:53:53.795Z,39.10
2019-05-15T13:56:25.350Z,38.70
2019-05-15T13:58:58.732Z,38.50
2019-05-15T14:01:30.848Z,38.00
2019-05-15T14:04:02.630Z,38.40
2019-05-15T14:06:34.339Z,39.50
2019-05-15T14:09:08.935Z,39.10
2019-05-15T14:11:40.743Z,39.30
2019-05-15T14:14:11.785Z,38.50
2019-05-15T14:16:43.750Z,38.00
2019-05-15T14:19:15.366Z,37.60
2019-05-15T14:21:49.073Z,37.20
2019-05-15T14:24:20.397Z,37.00
2019-05-15T14:26:52.256Z,36.80
2019-05-15T14:29:24.382Z,36.40
2019-05-15T14:31:58.381Z,36.40
2019-05-15T14:34:29.729Z,35.70
2019-05-15T14:37:04.737Z,36.00
2019-05-15T14:39:35.481Z,35.50
2019-05-15T14:42:09.091Z,35.40
2019-05-15T14:44:40.753Z,34.70
2019-05-15T14:47:12.897Z,34.60
2019-05-15T14:49:45.868Z,35.10
2019-05-15T14:52:17.935Z,35.00
2019-05-15T14:54:49.753Z,35.10
2019-05-15T14:57:20.367Z,35.60
2019-05-15T14:59:52.303Z,35.80
2019-05-15T15:02:23.864Z,35.80
2019-05-15T15:04:55.754Z,35.40
2019-05-15T15:07:28.276Z,35.70
2019-05-15T15:10:00.250Z,35.70
2019-05-15T15:12:31.872Z,35.50
2019-05-15T15:15:03.730Z,35.30
2019-05-15T15:17:35.372Z,35.70
2019-05-15T15:20:07.786Z,35.50
2019-05-15T15:22:39.788Z,35.70
2019-05-15T15:25:11.814Z,35.20
2019-05-15T15:27:43.613Z,35.40
2019-05-15T15:30:16.530Z,34.80
2019-05-15T15:32:52.781Z,34.60
2019-05-15T15:35:24.812Z,35.80
2019-05-15T15:37:58.047Z,34.70
2019-05-15T15:40:30.266Z,34.30
2019-05-15T15:43:02.066Z,33.40
2019-05-15T15:45:33.777Z,33.60
2019-05-15T15:48:04.477Z,33.10
2019-05-15T15:50:38.368Z,34.30
2019-05-15T15:53:09.837Z,37.20
2019-05-15T15:55:41.476Z,36.70
2019-05-15T15:58:13.049Z,37.20
2019-05-15T16:00:44.962Z,37.10
2019-05-15T16:03:19.160Z,38.10
2019-05-15T16:05:50.354Z,37.70
2019-05-15T16:08:22.407Z,37.50
2019-05-15T16:10:55.017Z,36.90
2019-05-15T16:13:29.009Z,38.40
2019-05-15T16:16:00.309Z,38.80
2019-05-15T16:18:31.867Z,38.50
2019-05-15T16:21:03.440Z,37.90
2019-05-15T16:23:35.311Z,38.00
2019-05-15T16:26:09.312Z,37.90
2019-05-15T16:28:40.750Z,38.10
2019-05-15T16:31:11.504Z,37.90
2019-05-15T16:33:43.321Z,37.50
2019-05-15T16:36:14.830Z,37.40
2019-05-15T16:38:48.212Z,37.50
2019-05-15T16:41:20.062Z,37.50
2019-05-15T16:43:51.804Z,37.50
2019-05-15T16:46:24.481Z,37.50
2019-05-15T16:48:58.473Z,37.50
2019-05-15T16:51:32.386Z,37.20
2019-05-15T16:54:03.321Z,37.20
2019-05-15T16:56:36.557Z,36.40
2019-05-15T16:59:08.740Z,36.70
2019-05-15T17:01:41.307Z,36.80
2019-05-15T17:04:12.841Z,36.30
2019-05-15T17:06:49.251Z,35.80
2019-05-15T17:09:21.880Z,35.60
2019-05-15T17:11:53.769Z,34.80
2019-05-15T17:14:25.854Z,35.00
2019-05-15T17:16:58.649Z,34.50
2019-05-15T17:19:30.775Z,36.30
2019-05-15T17:22:01.509Z,35.60
2019-05-15T17:24:33.319Z,36.30
2019-05-15T17:27:05.350Z,36.20
2019-05-15T17:29:38.482Z,35.40
2019-05-15T17:32:09.456Z,35.80
2019-05-15T17:34:41.322Z,36.40
2019-05-15T17:37:13.341Z,36.60
2019-05-15T17:39:44.859Z,36.70
2019-05-15T17:42:18.258Z,37.50
2019-05-15T17:44:50.663Z,37.80
2019-05-15T17:47:22.127Z,37.90
2019-05-15T17:49:54.315Z,37.80
2019-05-15T17:52:28.779Z,37.60
2019-05-15T17:54:59.761Z,37.60
2019-05-15T17:57:31.809Z,37.20
2019-05-15T18:00:03.820Z,37.00
2019-05-15T18:02:37.987Z,36.20
2019-05-15T18:05:09.989Z,35.90
2019-05-15T18:07:42.301Z,34.90
2019-05-15T18:10:14.341Z,35.30
2019-05-15T18:12:48.854Z,34.90
2019-05-15T18:15:20.787Z,37.90
2019-05-15T18:17:53.329Z,38.80
2019-05-15T18:20:29.646Z,38.70
2019-05-15T18:23:01.735Z,39.00
2019-05-15T18:25:32.597Z,39.20
2019-05-15T18:33:11.276Z,38.60
2019-05-15T18:35:43.318Z,39.20
2019-05-15T18:38:15.770Z,39.40
2019-05-15T18:40:48.701Z,39.50
2019-05-15T18:43:19.892Z,39.40
2019-05-15T18:45:51.707Z,39.40
2019-05-15T18:48:22.498Z,39.50
2019-05-15T18:50:54.315Z,39.50
2019-05-15T18:53:28.289Z,39.40
2019-05-15T18:55:59.776Z,39.60
2019-05-15T18:58:30.538Z,39.60
2019-05-15T19:01:02.531Z,39.40
2019-05-15T19:03:34.806Z,39.60
2019-05-15T19:06:08.770Z,39.40
2019-05-15T19:08:42.577Z,39.60
2019-05-15T19:11:14.314Z,40.40
2019-05-15T19:13:48.153Z,40.00
2019-05-15T19:16:20.612Z,40.10
2019-05-15T19:18:52.276Z,40.30
2019-05-15T19:21:24.810Z,40.20
2019-05-15T19:23:58.398Z,40.30
2019-05-15T19:31:33.375Z,39.50
2019-05-15T19:34:05.629Z,40.30
2019-05-15T19:36:38.258Z,40.30
2019-05-15T19:39:10.428Z,40.20
2019-05-15T19:41:42.066Z,40.50
2019-05-15T19:44:13.780Z,40.60
2019-05-15T19:46:44.537Z,40.70
2019-05-15T19:49:17.909Z,40.70
2019-05-15T19:51:49.813Z,40.70
2019-05-15T19:54:21.793Z,40.90
2019-05-15T19:56:53.745Z,40.70
2019-05-15T19:59:24.562Z,40.80
2019-05-15T20:01:57.792Z,41.00
2019-05-15T20:04:30.320Z,40.50
2019-05-15T20:07:02.629Z,41.00
2019-05-15T20:09:39.069Z,41.00
2019-05-15T20:12:10.760Z,41.00
2019-05-15T20:14:42.808Z,41.00
2019-05-15T20:17:14.514Z,41.20
2019-05-15T20:19:48.704Z,41.30
2019-05-15T20:22:20.038Z,41.20
2019-05-15T20:24:51.758Z,41.20
2019-05-15T20:27:22.690Z,41.30
2019-05-15T20:29:53.456Z,41.30
2019-05-15T20:32:27.684Z,41.30
2019-05-15T20:34:58.771Z,41.30
2019-05-15T20:37:29.705Z,41.40
2019-05-15T20:40:00.497Z,41.50
2019-05-15T20:42:32.819Z,41.40
2019-05-15T20:45:04.787Z,42.00
2019-05-15T20:47:38.569Z,41.50
2019-05-15T20:50:08.832Z,41.40
2019-05-15T20:52:41.305Z,41.10
2019-05-15T20:55:12.845Z,41.40
2019-05-15T20:57:44.822Z,42.10
2019-05-15T21:00:19.303Z,41.50
2019-05-15T21:02:50.788Z,42.40
2019-05-15T21:05:22.251Z,41.50
2019-05-15T21:07:53.814Z,41.60
2019-05-15T21:10:25.789Z,41.50
2019-05-15T21:12:59.396Z,41.70
2019-05-15T21:15:30.821Z,41.60
2019-05-15T21:18:13.792Z,41.70
2019-05-15T21:20:37.832Z,41.70
2019-05-15T21:23:09.789Z,41.70
2019-05-15T21:25:40.500Z,41.70
2019-05-15T21:28:12.343Z,41.80
2019-05-15T21:30:45.405Z,41.80
2019-05-15T21:33:17.723Z,41.90
2019-05-15T21:35:50.328Z,41.90
2019-05-15T21:38:21.825Z,41.80
2019-05-15T21:40:53.785Z,41.90
2019-05-15T21:43:24.465Z,41.90
2019-05-15T21:45:56.344Z,41.90
2019-05-15T21:48:29.760Z,42.00
2019-05-15T21:51:00.577Z,42.10
2019-05-15T21:53:32.807Z,42.00
2019-05-15T21:56:03.487Z,41.60
2019-05-15T21:58:37.578Z,42.10
2019-05-15T22:01:10.566Z,42.20
2019-05-15T22:03:42.326Z,42.20
2019-05-15T22:06:13.930Z,42.10
2019-05-15T22:08:45.786Z,42.10
2019-05-15T22:11:18.750Z,42.20
2019-05-15T22:13:49.848Z,42.10
2019-05-15T22:16:21.384Z,42.20
2019-05-15T22:18:53.310Z,42.20
2019-05-15T22:21:24.899Z,42.30
2019-05-15T22:23:58.220Z,42.40
2019-05-15T22:26:29.814Z,42.40
2019-05-15T22:29:01.655Z,42.50
2019-05-15T22:31:33.435Z,42.40
2019-05-15T22:34:05.304Z,43.10
2019-05-15T22:36:37.313Z,42.50
2019-05-15T22:39:09.753Z,42.40
2019-05-15T22:41:40.484Z,42.60
2019-05-15T22:44:12.275Z,42.50
2019-05-15T22:46:44.314Z,42.60
2019-05-15T22:49:18.167Z,42.60
2019-05-15T22:51:49.484Z,42.60
2019-05-15T22:54:21.345Z,42.60
2019-05-15T22:56:53.073Z,42.60
2019-05-15T22:59:25.071Z,42.70
2019-05-15T23:01:58.223Z,42.70
2019-05-15T23:04:30.070Z,42.70
2019-05-15T23:07:01.790Z,42.60
2019-05-15T23:09:33.706Z,42.70
2019-05-15T23:12:10.767Z,42.70
2019-05-15T23:14:39.770Z,42.70
2019-05-15T23:17:10.449Z,42.20
2019-05-15T23:19:42.316Z,42.70
2019-05-15T23:22:14.305Z,42.80
2019-05-15T23:24:47.920Z,42.90
2019-05-15T23:27:19.741Z,42.80
2019-05-15T23:29:50.491Z,42.80
2019-05-15T23:32:22.490Z,42.80
2019-05-15T23:34:54.313Z,42.80
2019-05-15T23:37:27.940Z,42.90
2019-05-15T23:39:59.375Z,42.90
2019-05-15T23:42:31.303Z,42.60
2019-05-15T23:45:02.875Z,42.90
2019-05-15T23:47:34.409Z,43.00
2019-05-15T23:50:06.054Z,43.00
2019-05-15T23:52:38.598Z,43.10
2019-05-15T23:55:10.271Z,43.00
2019-05-15T23:57:42.009Z,43.00
